sensor_id;sensor_type;location;lat;lon;timestamp;temperature;humidity
14142;DHT22;7151;52.246;4.820;2022-07-29T00:00:52;22.80;48.10
14142;DHT22;7151;52.246;4.820;2022-07-29T00:03:18;22.80;48.20
14142;DHT22;7151;52.246;4.820;2022-07-29T00:05:44;22.80;48.30
14142;DHT22;7151;52.246;4.820;2022-07-29T00:08:09;22.70;48.30
14142;DHT22;7151;52.246;4.820;2022-07-29T00:10:35;22.80;48.40
14142;DHT22;7151;52.246;4.820;2022-07-29T00:13:01;22.70;48.40
14142;DHT22;7151;52.246;4.820;2022-07-29T00:15:27;22.70;48.50
14142;DHT22;7151;52.246;4.820;2022-07-29T00:17:52;22.70;48.60
14142;DHT22;7151;52.246;4.820;2022-07-29T00:20:18;22.70;48.70
14142;DHT22;7151;52.246;4.820;2022-07-29T00:22:44;22.70;48.70
14142;DHT22;7151;52.246;4.820;2022-07-29T00:25:09;22.70;48.70
14142;DHT22;7151;52.246;4.820;2022-07-29T00:27:36;22.70;48.80
14142;DHT22;7151;52.246;4.820;2022-07-29T00:30:03;22.60;48.80
14142;DHT22;7151;52.246;4.820;2022-07-29T00:32:29;22.60;49.00
14142;DHT22;7151;52.246;4.820;2022-07-29T00:34:54;22.60;49.00
14142;DHT22;7151;52.246;4.820;2022-07-29T00:37:38;22.60;49.00
14142;DHT22;7151;52.246;4.820;2022-07-29T00:40:04;22.60;49.00
14142;DHT22;7151;52.246;4.820;2022-07-29T00:42:30;22.60;49.10
14142;DHT22;7151;52.246;4.820;2022-07-29T00:44:55;22.60;49.10
14142;DHT22;7151;52.246;4.820;2022-07-29T00:47:21;22.50;49.10
14142;DHT22;7151;52.246;4.820;2022-07-29T00:49:47;22.50;49.20
14142;DHT22;7151;52.246;4.820;2022-07-29T00:52:13;22.50;49.20
14142;DHT22;7151;52.246;4.820;2022-07-29T00:54:39;22.50;49.20
14142;DHT22;7151;52.246;4.820;2022-07-29T00:57:07;22.50;49.30
14142;DHT22;7151;52.246;4.820;2022-07-29T00:59:33;22.40;49.40
14142;DHT22;7151;52.246;4.820;2022-07-29T01:01:59;22.40;49.40
14142;DHT22;7151;52.246;4.820;2022-07-29T01:04:25;22.40;49.40
14142;DHT22;7151;52.246;4.820;2022-07-29T01:06:52;22.40;49.50
14142;DHT22;7151;52.246;4.820;2022-07-29T01:09:18;22.40;49.50
14142;DHT22;7151;52.246;4.820;2022-07-29T01:11:45;22.40;49.50
14142;DHT22;7151;52.246;4.820;2022-07-29T01:14:13;22.30;49.60
14142;DHT22;7151;52.246;4.820;2022-07-29T01:16:45;22.30;49.60
14142;DHT22;7151;52.246;4.820;2022-07-29T01:22:29;22.30;49.80
14142;DHT22;7151;52.246;4.820;2022-07-29T01:25:17;22.30;49.80
14142;DHT22;7151;52.246;4.820;2022-07-29T01:30:26;22.20;49.80
14142;DHT22;7151;52.246;4.820;2022-07-29T01:32:59;22.20;49.80
14142;DHT22;7151;52.246;4.820;2022-07-29T01:35:30;22.20;49.90
14142;DHT22;7151;52.246;4.820;2022-07-29T01:38:12;22.20;49.90
14142;DHT22;7151;52.246;4.820;2022-07-29T01:40:51;22.20;50.00
14142;DHT22;7151;52.246;4.820;2022-07-29T01:43:23;22.20;50.00
14142;DHT22;7151;52.246;4.820;2022-07-29T01:45:57;22.20;50.00
14142;DHT22;7151;52.246;4.820;2022-07-29T01:48:55;22.10;50.10
14142;DHT22;7151;52.246;4.820;2022-07-29T01:51:47;22.10;50.10
14142;DHT22;7151;52.246;4.820;2022-07-29T01:54:45;22.10;50.10
14142;DHT22;7151;52.246;4.820;2022-07-29T01:57:14;22.10;50.20
14142;DHT22;7151;52.246;4.820;2022-07-29T01:59:43;22.10;50.10
14142;DHT22;7151;52.246;4.820;2022-07-29T02:02:11;22.10;50.20
14142;DHT22;7151;52.246;4.820;2022-07-29T02:04:42;22.10;50.30
14142;DHT22;7151;52.246;4.820;2022-07-29T02:07:13;22.00;50.30
14142;DHT22;7151;52.246;4.820;2022-07-29T02:09:40;22.00;50.30
14142;DHT22;7151;52.246;4.820;2022-07-29T02:12:07;22.00;50.30
14142;DHT22;7151;52.246;4.820;2022-07-29T02:14:37;22.00;50.40
14142;DHT22;7151;52.246;4.820;2022-07-29T02:17:03;22.00;50.30
14142;DHT22;7151;52.246;4.820;2022-07-29T02:19:31;22.00;50.30
14142;DHT22;7151;52.246;4.820;2022-07-29T02:21:57;22.00;50.40
14142;DHT22;7151;52.246;4.820;2022-07-29T02:24:24;22.00;50.40
14142;DHT22;7151;52.246;4.820;2022-07-29T02:26:53;22.00;50.40
14142;DHT22;7151;52.246;4.820;2022-07-29T02:29:23;22.00;50.50
14142;DHT22;7151;52.246;4.820;2022-07-29T02:31:50;22.00;50.50
14142;DHT22;7151;52.246;4.820;2022-07-29T02:34:18;21.90;50.50
14142;DHT22;7151;52.246;4.820;2022-07-29T02:36:45;21.90;50.50
14142;DHT22;7151;52.246;4.820;2022-07-29T02:39:11;21.90;50.50
14142;DHT22;7151;52.246;4.820;2022-07-29T02:41:48;21.90;50.50
14142;DHT22;7151;52.246;4.820;2022-07-29T02:44:19;21.90;50.50
14142;DHT22;7151;52.246;4.820;2022-07-29T02:47:10;21.90;50.40
14142;DHT22;7151;52.246;4.820;2022-07-29T02:49:38;21.90;50.50
14142;DHT22;7151;52.246;4.820;2022-07-29T02:52:16;21.90;50.40
14142;DHT22;7151;52.246;4.820;2022-07-29T02:54:54;21.90;50.40
14142;DHT22;7151;52.246;4.820;2022-07-29T02:57:21;21.90;50.40
14142;DHT22;7151;52.246;4.820;2022-07-29T02:59:51;21.80;50.40
14142;DHT22;7151;52.246;4.820;2022-07-29T03:02:18;21.80;50.40
14142;DHT22;7151;52.246;4.820;2022-07-29T03:04:46;21.80;50.40
14142;DHT22;7151;52.246;4.820;2022-07-29T03:07:14;21.80;50.40
14142;DHT22;7151;52.246;4.820;2022-07-29T03:09:41;21.80;50.40
14142;DHT22;7151;52.246;4.820;2022-07-29T03:12:08;21.80;50.40
14142;DHT22;7151;52.246;4.820;2022-07-29T03:14:37;21.80;50.40
14142;DHT22;7151;52.246;4.820;2022-07-29T03:17:03;21.80;50.40
14142;DHT22;7151;52.246;4.820;2022-07-29T03:19:29;21.80;50.60
14142;DHT22;7151;52.246;4.820;2022-07-29T03:21:57;21.80;50.40
14142;DHT22;7151;52.246;4.820;2022-07-29T03:24:29;21.80;50.50
14142;DHT22;7151;52.246;4.820;2022-07-29T03:26:56;21.80;50.50
14142;DHT22;7151;52.246;4.820;2022-07-29T03:29:22;21.70;50.40
14142;DHT22;7151;52.246;4.820;2022-07-29T03:31:47;21.70;50.40
14142;DHT22;7151;52.246;4.820;2022-07-29T03:34:13;21.70;50.40
14142;DHT22;7151;52.246;4.820;2022-07-29T03:36:39;21.70;50.50
14142;DHT22;7151;52.246;4.820;2022-07-29T03:39:05;21.70;50.60
14142;DHT22;7151;52.246;4.820;2022-07-29T03:41:32;21.70;50.60
14142;DHT22;7151;52.246;4.820;2022-07-29T03:44:00;21.60;50.50
14142;DHT22;7151;52.246;4.820;2022-07-29T03:46:26;21.60;50.60
14142;DHT22;7151;52.246;4.820;2022-07-29T03:48:56;21.60;50.60
14142;DHT22;7151;52.246;4.820;2022-07-29T03:51:24;21.60;50.60
14142;DHT22;7151;52.246;4.820;2022-07-29T03:53:50;21.60;50.60
14142;DHT22;7151;52.246;4.820;2022-07-29T03:56:17;21.60;50.70
14142;DHT22;7151;52.246;4.820;2022-07-29T03:58:45;21.60;50.70
14142;DHT22;7151;52.246;4.820;2022-07-29T04:01:11;21.60;50.80
14142;DHT22;7151;52.246;4.820;2022-07-29T04:03:38;21.50;50.80
14142;DHT22;7151;52.246;4.820;2022-07-29T04:06:06;21.50;50.80
14142;DHT22;7151;52.246;4.820;2022-07-29T04:08:33;21.50;50.90
14142;DHT22;7151;52.246;4.820;2022-07-29T04:10:59;21.50;50.90
14142;DHT22;7151;52.246;4.820;2022-07-29T04:13:25;21.50;50.90
14142;DHT22;7151;52.246;4.820;2022-07-29T04:15:50;21.50;50.90
14142;DHT22;7151;52.246;4.820;2022-07-29T04:18:16;21.50;50.90
14142;DHT22;7151;52.246;4.820;2022-07-29T04:20:42;21.50;51.00
14142;DHT22;7151;52.246;4.820;2022-07-29T04:23:07;21.50;51.10
14142;DHT22;7151;52.246;4.820;2022-07-29T04:25:33;21.50;51.10
14142;DHT22;7151;52.246;4.820;2022-07-29T04:28:01;21.40;51.60
14142;DHT22;7151;52.246;4.820;2022-07-29T04:30:27;21.40;51.10
14142;DHT22;7151;52.246;4.820;2022-07-29T04:32:53;21.40;51.20
14142;DHT22;7151;52.246;4.820;2022-07-29T04:35:19;21.30;51.10
14142;DHT22;7151;52.246;4.820;2022-07-29T04:37:45;21.40;51.20
14142;DHT22;7151;52.246;4.820;2022-07-29T04:40:11;21.40;51.30
14142;DHT22;7151;52.246;4.820;2022-07-29T04:42:37;21.40;51.30
14142;DHT22;7151;52.246;4.820;2022-07-29T04:45:03;21.40;51.40
14142;DHT22;7151;52.246;4.820;2022-07-29T04:47:29;21.40;51.40
14142;DHT22;7151;52.246;4.820;2022-07-29T04:49:55;21.30;51.40
14142;DHT22;7151;52.246;4.820;2022-07-29T04:52:21;21.30;51.50
14142;DHT22;7151;52.246;4.820;2022-07-29T04:54:47;21.30;51.60
14142;DHT22;7151;52.246;4.820;2022-07-29T04:57:13;21.30;51.70
14142;DHT22;7151;52.246;4.820;2022-07-29T04:59:38;21.30;51.70
14142;DHT22;7151;52.246;4.820;2022-07-29T05:02:04;21.30;51.80
14142;DHT22;7151;52.246;4.820;2022-07-29T05:04:29;21.30;51.90
14142;DHT22;7151;52.246;4.820;2022-07-29T05:06:55;21.30;52.00
14142;DHT22;7151;52.246;4.820;2022-07-29T05:09:21;21.30;52.00
14142;DHT22;7151;52.246;4.820;2022-07-29T05:11:46;21.10;52.00
14142;DHT22;7151;52.246;4.820;2022-07-29T05:14:12;21.30;52.20
14142;DHT22;7151;52.246;4.820;2022-07-29T05:16:37;21.20;52.20
14142;DHT22;7151;52.246;4.820;2022-07-29T05:19:05;21.30;52.30
14142;DHT22;7151;52.246;4.820;2022-07-29T05:21:31;21.30;52.40
14142;DHT22;7151;52.246;4.820;2022-07-29T05:23:57;21.30;53.00
14142;DHT22;7151;52.246;4.820;2022-07-29T05:26:22;21.30;52.60
14142;DHT22;7151;52.246;4.820;2022-07-29T05:28:48;21.30;52.60
14142;DHT22;7151;52.246;4.820;2022-07-29T05:31:14;21.30;52.70
14142;DHT22;7151;52.246;4.820;2022-07-29T05:33:40;21.30;52.70
14142;DHT22;7151;52.246;4.820;2022-07-29T05:36:06;21.30;52.70
14142;DHT22;7151;52.246;4.820;2022-07-29T05:38:35;21.30;52.80
14142;DHT22;7151;52.246;4.820;2022-07-29T05:41:01;21.30;52.90
14142;DHT22;7151;52.246;4.820;2022-07-29T05:43:28;21.30;52.90
14142;DHT22;7151;52.246;4.820;2022-07-29T05:45:53;21.30;52.90
14142;DHT22;7151;52.246;4.820;2022-07-29T05:48:19;21.30;52.90
14142;DHT22;7151;52.246;4.820;2022-07-29T05:50:45;21.30;53.00
14142;DHT22;7151;52.246;4.820;2022-07-29T05:53:10;21.30;53.00
14142;DHT22;7151;52.246;4.820;2022-07-29T05:55:36;21.30;53.00
14142;DHT22;7151;52.246;4.820;2022-07-29T05:58:02;21.30;53.70
14142;DHT22;7151;52.246;4.820;2022-07-29T06:00:27;21.30;53.10
14142;DHT22;7151;52.246;4.820;2022-07-29T06:02:53;21.30;53.20
14142;DHT22;7151;52.246;4.820;2022-07-29T06:05:18;21.30;53.30
14142;DHT22;7151;52.246;4.820;2022-07-29T06:07:44;21.30;53.30
14142;DHT22;7151;52.246;4.820;2022-07-29T06:10:09;21.30;53.30
14142;DHT22;7151;52.246;4.820;2022-07-29T06:12:35;21.30;53.40
14142;DHT22;7151;52.246;4.820;2022-07-29T06:15:01;21.40;53.50
14142;DHT22;7151;52.246;4.820;2022-07-29T06:17:27;21.40;53.60
14142;DHT22;7151;52.246;4.820;2022-07-29T06:19:52;21.40;53.70
14142;DHT22;7151;52.246;4.820;2022-07-29T06:22:18;21.40;53.80
14142;DHT22;7151;52.246;4.820;2022-07-29T06:24:44;21.40;53.80
14142;DHT22;7151;52.246;4.820;2022-07-29T06:27:12;21.40;53.80
14142;DHT22;7151;52.246;4.820;2022-07-29T06:29:38;21.40;53.80
14142;DHT22;7151;52.246;4.820;2022-07-29T06:32:04;21.50;53.90
14142;DHT22;7151;52.246;4.820;2022-07-29T06:34:29;21.50;54.10
14142;DHT22;7151;52.246;4.820;2022-07-29T06:36:55;21.60;54.20
14142;DHT22;7151;52.246;4.820;2022-07-29T06:39:21;21.60;54.20
14142;DHT22;7151;52.246;4.820;2022-07-29T06:41:50;21.50;54.20
14142;DHT22;7151;52.246;4.820;2022-07-29T06:44:16;21.60;54.30
14142;DHT22;7151;52.246;4.820;2022-07-29T06:46:42;21.60;54.30
14142;DHT22;7151;52.246;4.820;2022-07-29T06:49:09;21.60;54.20
14142;DHT22;7151;52.246;4.820;2022-07-29T06:51:35;21.60;54.30
14142;DHT22;7151;52.246;4.820;2022-07-29T06:54:01;21.70;54.40
14142;DHT22;7151;52.246;4.820;2022-07-29T06:56:27;21.70;54.50
14142;DHT22;7151;52.246;4.820;2022-07-29T06:58:53;21.70;54.60
14142;DHT22;7151;52.246;4.820;2022-07-29T07:01:18;21.70;54.60
14142;DHT22;7151;52.246;4.820;2022-07-29T07:03:44;21.70;54.70
14142;DHT22;7151;52.246;4.820;2022-07-29T07:06:10;21.80;54.80
14142;DHT22;7151;52.246;4.820;2022-07-29T07:08:36;21.80;54.80
14142;DHT22;7151;52.246;4.820;2022-07-29T07:11:01;21.80;54.80
14142;DHT22;7151;52.246;4.820;2022-07-29T07:13:27;21.80;54.80
14142;DHT22;7151;52.246;4.820;2022-07-29T07:15:56;21.80;54.70
14142;DHT22;7151;52.246;4.820;2022-07-29T07:18:22;21.90;54.80
14142;DHT22;7151;52.246;4.820;2022-07-29T07:20:47;21.90;54.80
14142;DHT22;7151;52.246;4.820;2022-07-29T07:23:13;21.90;54.80
14142;DHT22;7151;52.246;4.820;2022-07-29T07:25:38;22.00;54.80
14142;DHT22;7151;52.246;4.820;2022-07-29T07:28:04;22.00;54.70
14142;DHT22;7151;52.246;4.820;2022-07-29T07:30:29;22.00;54.70
14142;DHT22;7151;52.246;4.820;2022-07-29T07:32:56;22.00;54.70
14142;DHT22;7151;52.246;4.820;2022-07-29T07:35:21;22.10;54.70
14142;DHT22;7151;52.246;4.820;2022-07-29T07:37:47;22.10;54.60
14142;DHT22;7151;52.246;4.820;2022-07-29T07:40:13;22.10;54.60
14142;DHT22;7151;52.246;4.820;2022-07-29T07:42:39;22.10;54.40
14142;DHT22;7151;52.246;4.820;2022-07-29T07:45:05;22.20;54.30
14142;DHT22;7151;52.246;4.820;2022-07-29T07:47:32;22.20;54.20
14142;DHT22;7151;52.246;4.820;2022-07-29T07:49:58;22.20;54.20
14142;DHT22;7151;52.246;4.820;2022-07-29T07:52:23;22.20;54.20
14142;DHT22;7151;52.246;4.820;2022-07-29T07:54:49;22.20;54.20
14142;DHT22;7151;52.246;4.820;2022-07-29T07:57:15;22.30;54.20
14142;DHT22;7151;52.246;4.820;2022-07-29T07:59:41;22.20;54.20
14142;DHT22;7151;52.246;4.820;2022-07-29T08:02:07;22.30;54.20
14142;DHT22;7151;52.246;4.820;2022-07-29T08:04:33;22.40;54.20
14142;DHT22;7151;52.246;4.820;2022-07-29T08:06:59;22.40;54.10
14142;DHT22;7151;52.246;4.820;2022-07-29T08:09:26;22.40;54.10
14142;DHT22;7151;52.246;4.820;2022-07-29T08:11:52;22.40;54.10
14142;DHT22;7151;52.246;4.820;2022-07-29T08:14:18;22.50;54.10
14142;DHT22;7151;52.246;4.820;2022-07-29T08:16:44;22.50;54.10
14142;DHT22;7151;52.246;4.820;2022-07-29T08:19:10;22.50;54.00
14142;DHT22;7151;52.246;4.820;2022-07-29T08:21:36;22.50;53.80
14142;DHT22;7151;52.246;4.820;2022-07-29T08:24:02;22.50;53.80
14142;DHT22;7151;52.246;4.820;2022-07-29T08:26:46;22.50;53.70
14142;DHT22;7151;52.246;4.820;2022-07-29T08:29:12;22.60;53.80
14142;DHT22;7151;52.246;4.820;2022-07-29T08:31:38;22.60;53.80
14142;DHT22;7151;52.246;4.820;2022-07-29T08:34:04;22.60;53.80
14142;DHT22;7151;52.246;4.820;2022-07-29T08:36:31;22.60;53.90
14142;DHT22;7151;52.246;4.820;2022-07-29T08:38:58;22.60;53.90
14142;DHT22;7151;52.246;4.820;2022-07-29T08:41:24;22.70;54.00
14142;DHT22;7151;52.246;4.820;2022-07-29T08:43:50;22.70;54.00
14142;DHT22;7151;52.246;4.820;2022-07-29T08:46:16;22.70;54.00
14142;DHT22;7151;52.246;4.820;2022-07-29T08:48:43;22.80;54.00
14142;DHT22;7151;52.246;4.820;2022-07-29T08:51:13;22.70;54.00
14142;DHT22;7151;52.246;4.820;2022-07-29T08:53:41;22.80;54.10
14142;DHT22;7151;52.246;4.820;2022-07-29T08:56:07;22.80;54.10
14142;DHT22;7151;52.246;4.820;2022-07-29T08:58:36;22.90;54.10
14142;DHT22;7151;52.246;4.820;2022-07-29T09:01:02;22.90;54.10
14142;DHT22;7151;52.246;4.820;2022-07-29T09:03:32;22.90;54.20
14142;DHT22;7151;52.246;4.820;2022-07-29T09:06:00;23.00;54.30
14142;DHT22;7151;52.246;4.820;2022-07-29T09:08:27;23.00;54.30
14142;DHT22;7151;52.246;4.820;2022-07-29T09:10:54;23.00;54.30
14142;DHT22;7151;52.246;4.820;2022-07-29T09:13:21;23.10;54.50
14142;DHT22;7151;52.246;4.820;2022-07-29T09:15:46;23.10;54.40
14142;DHT22;7151;52.246;4.820;2022-07-29T09:18:12;23.10;54.40
14142;DHT22;7151;52.246;4.820;2022-07-29T09:20:55;23.20;54.50
14142;DHT22;7151;52.246;4.820;2022-07-29T09:23:39;23.20;54.40
14142;DHT22;7151;52.246;4.820;2022-07-29T09:26:06;23.30;54.50
14142;DHT22;7151;52.246;4.820;2022-07-29T09:28:32;23.30;54.50
14142;DHT22;7151;52.246;4.820;2022-07-29T09:30:58;23.40;54.60
14142;DHT22;7151;52.246;4.820;2022-07-29T09:33:31;23.40;54.60
14142;DHT22;7151;52.246;4.820;2022-07-29T09:36:05;23.50;54.80
14142;DHT22;7151;52.246;4.820;2022-07-29T09:38:31;23.50;54.70
14142;DHT22;7151;52.246;4.820;2022-07-29T09:40:58;23.60;54.50
14142;DHT22;7151;52.246;4.820;2022-07-29T09:43:24;23.70;54.90
14142;DHT22;7151;52.246;4.820;2022-07-29T09:45:50;23.70;54.20
14142;DHT22;7151;52.246;4.820;2022-07-29T09:48:18;23.80;54.10
14142;DHT22;7151;52.246;4.820;2022-07-29T09:50:45;23.90;54.10
14142;DHT22;7151;52.246;4.820;2022-07-29T09:53:12;23.90;53.90
14142;DHT22;7151;52.246;4.820;2022-07-29T09:55:54;24.00;53.80
14142;DHT22;7151;52.246;4.820;2022-07-29T09:58:21;24.00;53.70
14142;DHT22;7151;52.246;4.820;2022-07-29T10:00:49;24.10;53.60
14142;DHT22;7151;52.246;4.820;2022-07-29T10:03:15;24.10;53.40
14142;DHT22;7151;52.246;4.820;2022-07-29T10:05:42;24.20;53.30
14142;DHT22;7151;52.246;4.820;2022-07-29T10:08:09;24.20;53.20
14142;DHT22;7151;52.246;4.820;2022-07-29T10:10:37;24.30;53.30
14142;DHT22;7151;52.246;4.820;2022-07-29T10:13:08;24.30;53.20
14142;DHT22;7151;52.246;4.820;2022-07-29T10:15:39;24.30;53.20
14142;DHT22;7151;52.246;4.820;2022-07-29T10:18:11;24.40;53.20
14142;DHT22;7151;52.246;4.820;2022-07-29T10:20:37;24.40;53.10
14142;DHT22;7151;52.246;4.820;2022-07-29T10:23:04;24.40;53.10
14142;DHT22;7151;52.246;4.820;2022-07-29T10:25:30;24.50;53.30
14142;DHT22;7151;52.246;4.820;2022-07-29T10:27:55;24.60;53.20
14142;DHT22;7151;52.246;4.820;2022-07-29T10:30:23;24.60;53.10
14142;DHT22;7151;52.246;4.820;2022-07-29T10:44:01;24.90;52.80
14142;DHT22;7151;52.246;4.820;2022-07-29T10:46:27;25.00;52.80
14142;DHT22;7151;52.246;4.820;2022-07-29T10:49:09;25.00;52.60
14142;DHT22;7151;52.246;4.820;2022-07-29T10:54:19;25.10;52.40
14142;DHT22;7151;52.246;4.820;2022-07-29T10:59:43;25.20;52.10
14142;DHT22;7151;52.246;4.820;2022-07-29T11:07:25;25.40;52.30
14142;DHT22;7151;52.246;4.820;2022-07-29T11:15:08;25.60;51.70
14142;DHT22;7151;52.246;4.820;2022-07-29T11:18:03;25.70;51.40
14142;DHT22;7151;52.246;4.820;2022-07-29T11:20:43;25.80;51.20
14142;DHT22;7151;52.246;4.820;2022-07-29T11:23:25;25.90;51.10
14142;DHT22;7151;52.246;4.820;2022-07-29T11:29:08;26.00;50.90
14142;DHT22;7151;52.246;4.820;2022-07-29T11:31:41;26.10;50.70
14142;DHT22;7151;52.246;4.820;2022-07-29T11:39:32;26.30;50.30
14142;DHT22;7151;52.246;4.820;2022-07-29T11:47:38;26.50;50.00
14142;DHT22;7151;52.246;4.820;2022-07-29T11:50:11;26.60;50.00
14142;DHT22;7151;52.246;4.820;2022-07-29T11:52:45;26.70;50.00
14142;DHT22;7151;52.246;4.820;2022-07-29T11:55:19;26.80;49.80
14142;DHT22;7151;52.246;4.820;2022-07-29T11:57:52;26.90;49.70
14142;DHT22;7151;52.246;4.820;2022-07-29T12:00:24;27.00;49.50
14142;DHT22;7151;52.246;4.820;2022-07-29T12:02:50;27.10;49.30
14142;DHT22;7151;52.246;4.820;2022-07-29T12:05:17;27.20;49.20
14142;DHT22;7151;52.246;4.820;2022-07-29T12:07:43;27.30;49.10
14142;DHT22;7151;52.246;4.820;2022-07-29T12:10:08;27.40;48.80
14142;DHT22;7151;52.246;4.820;2022-07-29T12:12:35;27.50;48.60
14142;DHT22;7151;52.246;4.820;2022-07-29T12:15:14;27.50;48.40
14142;DHT22;7151;52.246;4.820;2022-07-29T12:17:40;27.60;48.10
14142;DHT22;7151;52.246;4.820;2022-07-29T12:20:06;27.70;48.20
14142;DHT22;7151;52.246;4.820;2022-07-29T12:22:33;27.80;48.10
14142;DHT22;7151;52.246;4.820;2022-07-29T12:25:17;27.90;48.10
14142;DHT22;7151;52.246;4.820;2022-07-29T12:27:44;28.00;47.70
14142;DHT22;7151;52.246;4.820;2022-07-29T12:30:14;28.10;47.70
14142;DHT22;7151;52.246;4.820;2022-07-29T12:32:44;28.10;47.30
14142;DHT22;7151;52.246;4.820;2022-07-29T12:35:14;28.20;47.30
14142;DHT22;7151;52.246;4.820;2022-07-29T12:37:42;28.30;47.30
14142;DHT22;7151;52.246;4.820;2022-07-29T12:40:09;28.30;47.30
14142;DHT22;7151;52.246;4.820;2022-07-29T12:42:35;28.40;47.40
14142;DHT22;7151;52.246;4.820;2022-07-29T12:45:01;28.50;47.20
14142;DHT22;7151;52.246;4.820;2022-07-29T12:47:28;28.50;47.10
14142;DHT22;7151;52.246;4.820;2022-07-29T12:50:09;28.60;46.80
14142;DHT22;7151;52.246;4.820;2022-07-29T12:52:36;28.60;46.50
14142;DHT22;7151;52.246;4.820;2022-07-29T12:55:02;28.60;46.60
14142;DHT22;7151;52.246;4.820;2022-07-29T12:57:28;28.60;46.80
14142;DHT22;7151;52.246;4.820;2022-07-29T13:00:08;28.60;46.90
14142;DHT22;7151;52.246;4.820;2022-07-29T13:02:35;28.60;46.70
14142;DHT22;7151;52.246;4.820;2022-07-29T13:05:02;28.60;46.60
14142;DHT22;7151;52.246;4.820;2022-07-29T13:07:30;28.60;46.50
14142;DHT22;7151;52.246;4.820;2022-07-29T13:10:17;28.60;46.50
14142;DHT22;7151;52.246;4.820;2022-07-29T13:13:05;28.70;46.70
14142;DHT22;7151;52.246;4.820;2022-07-29T13:15:32;28.70;46.80
14142;DHT22;7151;52.246;4.820;2022-07-29T13:17:58;28.70;46.80
14142;DHT22;7151;52.246;4.820;2022-07-29T13:20:25;28.80;46.80
14142;DHT22;7151;52.246;4.820;2022-07-29T13:22:53;28.90;47.30
14142;DHT22;7151;52.246;4.820;2022-07-29T13:25:30;28.90;46.70
14142;DHT22;7151;52.246;4.820;2022-07-29T13:27:58;29.00;46.80
14142;DHT22;7151;52.246;4.820;2022-07-29T13:30:24;29.00;46.90
14142;DHT22;7151;52.246;4.820;2022-07-29T13:32:52;29.10;46.90
14142;DHT22;7151;52.246;4.820;2022-07-29T13:35:18;29.20;46.50
14142;DHT22;7151;52.246;4.820;2022-07-29T13:37:45;29.30;46.40
14142;DHT22;7151;52.246;4.820;2022-07-29T13:40:11;29.30;46.00
14142;DHT22;7151;52.246;4.820;2022-07-29T13:42:37;29.30;45.70
14142;DHT22;7151;52.246;4.820;2022-07-29T13:45:04;29.30;45.50
14142;DHT22;7151;52.246;4.820;2022-07-29T13:47:30;29.30;45.60
14142;DHT22;7151;52.246;4.820;2022-07-29T13:49:56;29.30;45.80
14142;DHT22;7151;52.246;4.820;2022-07-29T13:52:21;29.30;46.00
14142;DHT22;7151;52.246;4.820;2022-07-29T13:54:47;29.30;46.10
14142;DHT22;7151;52.246;4.820;2022-07-29T13:57:13;29.40;46.10
14142;DHT22;7151;52.246;4.820;2022-07-29T13:59:40;29.40;46.00
14142;DHT22;7151;52.246;4.820;2022-07-29T14:02:07;29.50;46.10
14142;DHT22;7151;52.246;4.820;2022-07-29T14:04:34;29.60;46.10
14142;DHT22;7151;52.246;4.820;2022-07-29T14:07:00;29.70;45.90
14142;DHT22;7151;52.246;4.820;2022-07-29T14:09:25;29.80;45.80
14142;DHT22;7151;52.246;4.820;2022-07-29T14:11:51;29.80;45.70
14142;DHT22;7151;52.246;4.820;2022-07-29T14:14:18;29.90;45.60
14142;DHT22;7151;52.246;4.820;2022-07-29T14:16:44;29.90;45.30
14142;DHT22;7151;52.246;4.820;2022-07-29T14:19:10;29.90;45.10
14142;DHT22;7151;52.246;4.820;2022-07-29T14:21:37;29.80;44.80
14142;DHT22;7151;52.246;4.820;2022-07-29T14:24:02;29.80;44.70
14142;DHT22;7151;52.246;4.820;2022-07-29T14:26:28;29.80;44.80
14142;DHT22;7151;52.246;4.820;2022-07-29T14:28:54;29.80;45.00
14142;DHT22;7151;52.246;4.820;2022-07-29T14:31:19;29.80;45.10
14142;DHT22;7151;52.246;4.820;2022-07-29T14:33:45;29.80;45.10
14142;DHT22;7151;52.246;4.820;2022-07-29T14:36:10;29.80;45.20
14142;DHT22;7151;52.246;4.820;2022-07-29T14:38:36;29.90;45.10
14142;DHT22;7151;52.246;4.820;2022-07-29T14:41:03;30.00;44.80
14142;DHT22;7151;52.246;4.820;2022-07-29T14:43:28;30.10;44.90
14142;DHT22;7151;52.246;4.820;2022-07-29T14:45:54;30.10;44.70
14142;DHT22;7151;52.246;4.820;2022-07-29T14:48:19;30.20;44.60
14142;DHT22;7151;52.246;4.820;2022-07-29T14:50:45;30.30;44.60
14142;DHT22;7151;52.246;4.820;2022-07-29T14:53:10;30.40;44.40
14142;DHT22;7151;52.246;4.820;2022-07-29T14:55:38;30.50;44.10
14142;DHT22;7151;52.246;4.820;2022-07-29T14:58:04;30.60;44.20
14142;DHT22;7151;52.246;4.820;2022-07-29T15:00:30;30.70;44.10
14142;DHT22;7151;52.246;4.820;2022-07-29T15:02:58;30.80;44.00
14142;DHT22;7151;52.246;4.820;2022-07-29T15:05:25;30.90;43.70
14142;DHT22;7151;52.246;4.820;2022-07-29T15:07:50;31.00;43.50
14142;DHT22;7151;52.246;4.820;2022-07-29T15:10:16;31.10;43.20
14142;DHT22;7151;52.246;4.820;2022-07-29T15:12:41;31.20;42.60
14142;DHT22;7151;52.246;4.820;2022-07-29T15:15:07;31.30;42.00
14142;DHT22;7151;52.246;4.820;2022-07-29T15:17:34;31.30;41.80
14142;DHT22;7151;52.246;4.820;2022-07-29T15:19:59;31.40;41.70
14142;DHT22;7151;52.246;4.820;2022-07-29T15:22:25;31.40;42.00
14142;DHT22;7151;52.246;4.820;2022-07-29T15:24:50;31.40;42.20
14142;DHT22;7151;52.246;4.820;2022-07-29T15:27:16;31.50;42.30
14142;DHT22;7151;52.246;4.820;2022-07-29T15:29:42;31.50;42.30
14142;DHT22;7151;52.246;4.820;2022-07-29T15:32:08;31.60;42.30
14142;DHT22;7151;52.246;4.820;2022-07-29T15:34:34;31.70;42.20
14142;DHT22;7151;52.246;4.820;2022-07-29T15:36:59;31.70;41.90
14142;DHT22;7151;52.246;4.820;2022-07-29T15:39:26;31.70;41.80
14142;DHT22;7151;52.246;4.820;2022-07-29T15:41:51;31.70;41.70
14142;DHT22;7151;52.246;4.820;2022-07-29T15:44:17;31.70;41.60
14142;DHT22;7151;52.246;4.820;2022-07-29T15:46:43;31.70;41.10
14142;DHT22;7151;52.246;4.820;2022-07-29T15:49:28;31.70;40.60
14142;DHT22;7151;52.246;4.820;2022-07-29T15:52:05;31.70;40.10
14142;DHT22;7151;52.246;4.820;2022-07-29T15:54:33;31.70;39.40
14142;DHT22;7151;52.246;4.820;2022-07-29T15:56:59;31.60;39.10
14142;DHT22;7151;52.246;4.820;2022-07-29T15:59:25;31.60;39.10
14142;DHT22;7151;52.246;4.820;2022-07-29T16:01:51;31.60;39.00
14142;DHT22;7151;52.246;4.820;2022-07-29T16:04:16;31.50;38.60
14142;DHT22;7151;52.246;4.820;2022-07-29T16:06:43;31.40;38.30
14142;DHT22;7151;52.246;4.820;2022-07-29T16:09:09;31.40;38.20
14142;DHT22;7151;52.246;4.820;2022-07-29T16:11:35;31.30;38.00
14142;DHT22;7151;52.246;4.820;2022-07-29T16:14:00;31.20;37.90
14142;DHT22;7151;52.246;4.820;2022-07-29T16:16:26;31.10;37.80
14142;DHT22;7151;52.246;4.820;2022-07-29T16:18:53;31.10;37.60
14142;DHT22;7151;52.246;4.820;2022-07-29T16:21:20;31.00;37.60
14142;DHT22;7151;52.246;4.820;2022-07-29T16:23:47;31.00;37.70
14142;DHT22;7151;52.246;4.820;2022-07-29T16:26:12;30.90;38.10
14142;DHT22;7151;52.246;4.820;2022-07-29T16:28:38;30.90;38.30
14142;DHT22;7151;52.246;4.820;2022-07-29T16:31:03;30.80;38.60
14142;DHT22;7151;52.246;4.820;2022-07-29T16:33:29;30.80;38.70
14142;DHT22;7151;52.246;4.820;2022-07-29T16:35:55;30.70;38.80